Time;durP1;ratioP1;P1;durP2;ratioP2;P2;SDS_P1;SDS_P2;PMS_P1;PMS_P2;Temp;Humidity;BMP_temperature;BMP_pressure;BME280_temperature;BME280_humidity;BME280_pressure;Samples;Min_cycle;Max_cycle;Signal;HPM_P1;HPM_P2
2022/06/12 00:02:29;;;;;;;;;;;;;;;;;;21263053;27;19968;-66
2022/06/12 00:12:31;;;;;;;;;;;;;;;;;;21263691;27;19923;-69
2022/06/12 00:22:33;;;;;;;;;;;;;;;;;;21261998;27;20273;-67
2022/06/12 00:32:35;;;;;;;;;;;;;;;;;;21261036;27;19923;-66
2022/06/12 00:42:37;;;;;;;;;;;;;;;;;;21259365;27;20018;-68
2022/06/12 00:52:40;;;;;;;;;;;;;;;;;;21259277;27;19923;-66
2022/06/12 01:02:41;;;;;;;;;;;;;;;;;;21259730;27;19923;-68
2022/06/12 01:12:48;;;;;;;;;;;28.70;27.20;;;;;;21257967;27;19943;-63
2022/06/12 01:22:52;;;;;;;;;;;;;;;;;;21256759;27;19923;-67
2022/06/12 01:32:58;;;;;;;;;;;;;;;;;;21255839;27;19931;-64
2022/06/12 01:43:03;;;;;;;;;;;;;;;;;;21256495;27;19923;-63
2022/06/12 01:53:10;;;;;;;;;;;;;;;;;;21255193;27;19976;-67
2022/06/12 02:03:17;;;;;;;;;;;;;;;;;;21253646;27;19974;-67
2022/06/12 02:13:27;;;;;;;;;;;;;;;;;;21253252;27;20415;-66
2022/06/12 02:23:28;;;;;;;;;;;;;;;;;;21251814;27;20387;-64
2022/06/12 02:33:36;;;;;;;;;;;27.60;28.80;;;;;;21250851;27;19924;-65
2022/06/12 02:43:48;;;;;;;;;;;26.90;29.30;;;;;;21251517;27;20316;-67
2022/06/12 02:54:04;;;;;;;;;;;26.60;29.60;;;;;;21250900;27;19968;-69
2022/06/12 03:04:47;;;;;;;;;;;26.50;29.90;;;;;;21249935;27;20359;-67
2022/06/12 03:15:26;;;;;;;;;;;26.40;30.40;;;;;;21249741;27;19927;-64
2022/06/12 03:25:45;;;;;;;;;;;26.30;30.70;;;;;;21248188;27;19923;-66
2022/06/12 03:35:49;;;;;;;;;;;26.20;31.10;;;;;;21248034;28;19923;-67
2022/06/12 03:46:01;;;;;;;;;;;26.10;31.60;;;;;;21247173;28;20031;-67
2022/06/12 04:06:35;;;;;;;;;;;25.90;32.20;;;;;;21247976;28;19931;-67
2022/06/12 04:16:43;;;;;;;;;;;25.80;32.60;;;;;;21258839;27;19923;-68
2022/06/12 04:26:47;;;;;;;;;;;25.70;33.30;;;;;;21264306;27;19924;-67
2022/06/12 04:36:51;;;;;;;;;;;25.70;34.10;;;;;;21277997;27;20336;-65
2022/06/12 04:46:54;;;;;;;;;;;25.40;35.00;;;;;;21266470;27;19962;-65
2022/06/12 04:56:56;;;;;;;;;;;25.40;35.60;;;;;;21262056;27;19924;-67
2022/06/12 05:06:58;;;;;;;;;;;25.30;35.20;;;;;;21259420;27;19989;-66
2022/06/12 05:17:02;;;;;;;;;;;25.20;36.80;;;;;;21259477;27;19923;-65
2022/06/12 05:27:04;;;;;;;;;;;25.10;37.10;;;;;;21257433;27;19923;-66
2022/06/12 05:37:06;;;;;;;;;;;25.20;37.20;;;;;;21257319;27;20312;-65
2022/06/12 05:47:09;;;;;;;;;;;25.20;37.50;;;;;;21255752;27;19923;-67
2022/06/12 05:57:11;;;;;;;;;;;25.20;38.00;;;;;;21254571;27;20212;-63
2022/06/12 06:07:13;;;;;;;;;;;25.20;38.50;;;;;;21253239;27;19930;-65
2022/06/12 06:17:14;;;;;;;;;;;25.20;38.70;;;;;;21253173;27;20390;-67
2022/06/12 06:27:16;;;;;;;;;;;25.20;38.90;;;;;;21252479;27;19973;-65
2022/06/12 06:37:18;;;;;;;;;;;25.10;39.20;;;;;;21251458;27;20370;-67
2022/06/12 06:47:20;;;;;;;;;;;25.20;38.60;;;;;;21251768;27;20018;-62
2022/06/12 06:57:23;;;;;;;;;;;25.20;39.20;;;;;;21249334;27;20314;-65
2022/06/12 07:07:25;;;;;;;;;;;25.20;39.20;;;;;;21248592;27;20006;-62
2022/06/12 07:17:28;;;;;;;;;;;26.20;37.60;;;;;;21249286;27;20236;-65
2022/06/12 07:27:30;;;;;;;;;;;26.90;36.40;;;;;;21248281;27;19924;-62
2022/06/12 07:37:33;;;;;;;;;;;27.50;35.20;;;;;;21247228;28;19924;-66
2022/06/12 07:47:35;;;;;;;;;;;28.40;33.50;;;;;;21252766;27;20014;-64
2022/06/12 07:57:38;;;;;;;;;;;27.90;33.20;;;;;;21264217;27;19923;-63
2022/06/12 08:07:40;;;;;;;;;;;27.50;32.70;;;;;;21245429;27;19961;-63
2022/06/12 08:17:42;;;;;;;;;;;28.20;31.30;;;;;;21263536;27;19985;-63
2022/06/12 08:27:43;;;;;;;;;;;28.90;30.80;;;;;;21261645;27;19923;-64
2022/06/12 08:37:45;;;;;;;;;;;;;;;;;;21263192;27;19924;-66
2022/06/12 08:48:01;;;;;;;;;;;29.80;29.20;;;;;;21243260;27;20198;-64
2022/06/12 08:58:08;;;;;;;;;;;29.70;29.70;;;;;;21258519;27;20370;-63
2022/06/12 09:08:20;;;;;;;;;;;30.40;28.40;;;;;;21258519;27;19923;-64
2022/06/12 09:18:42;;;;;;;;;;;30.90;27.50;;;;;;21257288;27;19924;-65
2022/06/12 09:28:44;;;;;;;;;;;;;;;;;;21256735;27;19962;-65
2022/06/12 09:38:55;;;;;;;;;;;31.10;27.20;;;;;;21257489;27;19931;-64
2022/06/12 09:49:15;;;;;;;;;;;31.10;26.90;;;;;;21257591;27;19923;-63
2022/06/12 09:59:26;;;;;;;;;;;31.20;27.00;;;;;;21254047;27;19924;-62
2022/06/12 10:09:50;;;;;;;;;;;31.60;26.30;;;;;;21254054;27;19928;-67
2022/06/12 10:19:52;;;;;;;;;;;;;;;;;;21253219;27;19927;-65
2022/06/12 10:29:56;;;;;;;;;;;32.00;25.70;;;;;;21251774;27;19930;-62
2022/06/12 10:40:01;;;;;;;;;;;31.10;26.40;;;;;;21251146;27;19923;-62
2022/06/12 10:50:04;;;;;;;;;;;31.20;26.40;;;;;;21250940;27;20018;-64
2022/06/12 11:00:11;;;;;;;;;;;31.30;26.10;;;;;;21249552;27;19923;-64
2022/06/12 11:10:31;;;;;;;;;;;31.40;26.10;;;;;;21250277;27;20010;-63
2022/06/12 11:20:47;;;;;;;;;;;31.70;25.70;;;;;;21247325;27;19924;-67
2022/06/12 11:30:56;;;;;;;;;;;31.80;25.80;;;;;;21248385;27;20405;-62
2022/06/12 11:40:58;;;;;;;;;;;;;;;;;;21249961;28;20284;-65
2022/06/12 11:51:03;;;;;;;;;;;33.00;24.60;;;;;;21247366;28;19928;-65
2022/06/12 12:01:12;;;;;;;;;;;32.50;25.00;;;;;;21246818;28;20436;-63
2022/06/12 12:11:15;;;;;;;;;;;;;;;;;;21247019;28;19923;-64
2022/06/12 12:21:46;;;;;;;;;;;33.50;24.00;;;;;;21246750;28;20375;-63
2022/06/12 12:31:49;;;;;;;;;;;;;;;;;;21068902;28;20009;-63
2022/06/12 12:41:52;;;;;;;;;;;;;;;;;;21082674;28;19948;-68
2022/06/12 12:52:08;;;;;;;;;;;34.30;22.90;;;;;;21081823;28;19924;-67
2022/06/12 13:02:30;;;;;;;;;;;34.10;22.60;;;;;;21131909;27;20384;-64
2022/06/12 13:12:51;;;;;;;;;;;34.30;22.90;;;;;;21258693;27;20355;-69
2022/06/12 13:23:05;;;;;;;;;;;34.20;22.70;;;;;;21257959;27;20002;-64
2022/06/12 13:33:16;;;;;;;;;;;34.00;23.00;;;;;;21257044;27;19923;-63
2022/06/12 13:43:22;;;;;;;;;;;34.30;22.50;;;;;;21255644;27;19927;-69
2022/06/12 13:53:23;;;;;;;;;;;34.50;21.90;;;;;;21255836;27;19992;-65
2022/06/12 14:03:36;;;;;;;;;;;34.40;22.30;;;;;;21220534;27;19958;-68
2022/06/12 14:13:41;;;;;;;;;;;34.30;22.40;;;;;;21253810;27;20363;-68
2022/06/12 14:23:45;;;;;;;;;;;;;;;;;;21253250;27;19931;-64
2022/06/12 14:33:53;;;;;;;;;;;34.90;22.00;;;;;;21252104;27;19923;-67
2022/06/12 14:43:56;;;;;;;;;;;34.80;21.80;;;;;;21251058;27;19924;-67
2022/06/12 14:53:59;;;;;;;;;;;34.60;21.80;;;;;;21251690;27;19931;-65
2022/06/12 15:04:01;;;;;;;;;;;;;;;;;;21248724;27;19924;-69
2022/06/12 15:14:02;;;;;;;;;;;34.90;21.60;;;;;;21249237;27;20387;-66
2022/06/12 15:24:05;;;;;;;;;;;34.70;21.80;;;;;;21248939;27;19923;-68
2022/06/12 15:34:07;;;;;;;;;;;34.80;21.90;;;;;;21248340;28;19969;-68
2022/06/12 15:44:10;;;;;;;;;;;35.20;21.60;;;;;;21248741;28;19935;-69
2022/06/12 15:54:18;;;;;;;;;;;35.20;21.30;;;;;;21248453;28;19968;-68
2022/06/12 16:04:20;;;;;;;;;;;35.30;21.20;;;;;;21230162;28;19928;-67
2022/06/12 16:14:22;;;;;;;;;;;35.10;21.20;;;;;;21262375;27;19968;-64
2022/06/12 16:24:24;;;;;;;;;;;35.10;21.10;;;;;;21262362;27;19923;-67
2022/06/12 16:34:25;;;;;;;;;;;35.20;21.20;;;;;;21262147;27;19971;-67
2022/06/12 16:44:28;;;;;;;;;;;35.30;21.20;;;;;;21265541;27;19931;-66
2022/06/12 16:54:37;;;;;;;;;;;35.30;21.20;;;;;;21262562;27;20390;-67
2022/06/12 17:04:39;;;;;;;;;;;35.30;20.90;;;;;;21259855;27;19930;-66
2022/06/12 17:14:42;;;;;;;;;;;35.30;21.30;;;;;;21258575;27;19923;-67
2022/06/12 17:24:44;;;;;;;;;;;35.30;21.10;;;;;;21257065;27;20314;-67
2022/06/12 17:34:46;;;;;;;;;;;35.10;21.40;;;;;;21258116;27;19928;-68
2022/06/12 17:44:47;;;;;;;;;;;35.20;21.20;;;;;;21257178;27;19923;-66
2022/06/12 17:54:50;;;;;;;;;;;35.10;21.40;;;;;;21255918;27;19931;-71
2022/06/12 18:04:52;;;;;;;;;;;35.00;21.60;;;;;;21272812;27;19928;-73
2022/06/12 18:25:14;;;;;;;;;;;34.80;21.90;;;;;;21254882;27;19930;-71
2022/06/12 18:35:15;;;;;;;;;;;34.70;22.00;;;;;;21251895;27;20301;-68
2022/06/12 18:45:16;;;;;;;;;;;34.70;22.30;;;;;;21250633;27;19927;-68
2022/06/12 18:55:18;;;;;;;;;;;34.50;22.70;;;;;;21250623;27;20282;-67
2022/06/12 19:05:20;;;;;;;;;;;34.30;22.80;;;;;;21250131;27;19927;-66
2022/06/12 19:15:21;;;;;;;;;;;34.10;23.00;;;;;;21249891;27;20371;-67
2022/06/12 19:25:23;;;;;;;;;;;33.90;23.30;;;;;;21248042;27;19924;-64
2022/06/12 19:35:26;;;;;;;;;;;;;;;;;;21249866;27;19924;-67
2022/06/12 19:45:27;;;;;;;;;;;;;;;;;;21257184;27;20352;-67
2022/06/12 19:55:29;;;;;;;;;;;34.10;23.90;;;;;;21263680;27;19924;-68
2022/06/12 20:15:50;;;;;;;;;;;32.80;25.30;;;;;;21263080;27;19966;-70
2022/06/12 20:25:53;;;;;;;;;;;33.20;25.40;;;;;;21262901;27;19974;-66
2022/06/12 20:35:54;;;;;;;;;;;32.60;26.10;;;;;;21262779;27;19931;-69
2022/06/12 20:45:56;;;;;;;;;;;32.10;26.50;;;;;;21261855;27;19923;-71
2022/06/12 20:55:58;;;;;;;;;;;32.30;25.70;;;;;;21259571;27;19947;-68
2022/06/12 21:06:00;;;;;;;;;;;32.20;24.50;;;;;;21274998;27;19953;-69
2022/06/12 21:16:01;;;;;;;;;;;32.10;24.00;;;;;;21257908;27;20382;-70
2022/06/12 21:26:04;;;;;;;;;;;32.00;23.30;;;;;;21256847;27;19949;-70
2022/06/12 21:36:06;;;;;;;;;;;31.80;22.80;;;;;;21257089;27;19928;-67
2022/06/12 21:46:08;;;;;;;;;;;31.70;22.50;;;;;;21257331;27;19930;-68
2022/06/12 21:56:10;;;;;;;;;;;31.40;22.60;;;;;;21256737;27;20334;-69
2022/06/12 22:06:12;;;;;;;;;;;;;;;;;;21255122;27;19975;-68
2022/06/12 22:16:14;;;;;;;;;;;;;;;;;;21253824;27;19927;-68
2022/06/12 22:26:16;;;;;;;;;;;;;;;;;;21253185;27;20291;-66
2022/06/12 22:36:19;;;;;;;;;;;;;;;;;;21252818;27;20026;-68
2022/06/12 22:46:20;;;;;;;;;;;;;;;;;;21255348;27;19935;-70
2022/06/12 22:56:22;;;;;;;;;;;;;;;;;;21256607;27;20328;-68
2022/06/12 23:06:23;;;;;;;;;;;31.10;24.90;;;;;;21254010;27;19930;-68
2022/06/12 23:16:25;;;;;;;;;;;;;;;;;;21249701;27;19927;-68
2022/06/12 23:26:27;;;;;;;;;;;;;;;;;;21250868;27;20355;-70
2022/06/12 23:36:29;;;;;;;;;;;;;;;;;;21249195;27;19923;-69
2022/06/12 23:46:31;;;;;;;;;;;29.80;26.90;;;;;;21250365;28;19992;-69
2022/06/12 23:56:33;;;;;;;;;;;29.20;27.10;;;;;;21248399;28;19924;-66
